GCLP

Gran Canaria Airport

Gran Canaria Island, Spain
TAF GCLP 251400Z 2515/2615 02012KT 9999 FEW030 TX29/2614Z TN22/2605Z
Issued Valid From Valid To
Sep-25 @ 14:00 UTC
(2 hours ago)
Sep-25 @ 15:00 UTC
(40 minutes ago)
Sep-26 @ 15:00 UTC
(in 23 hours)
Sep-25 @ 15:00 to Sep-26 @ 15:00
TAF GCLP 251400Z 2515/2615 02012KT 9999 FEW030 TX29/2614Z TN22/2605Z
Wind Visibility Clouds
20° at 12 knots 10,000+ meters
  • Few at 3,000' AGL
TAF GCLP 251400Z 2515/2615 02012KT 9999 FEW030 TX29/2614Z TN22/2605Z
Issued Sep-25 @ 14:00 UTC
(2 hours ago)
Valid From Sep-25 @ 15:00 UTC
(40 minutes ago)
Valid To Sep-26 @ 15:00 UTC
(in 23 hours)
Sep-25 @ 15:00 - Sep-26 @ 15:00
Wind Visibility
20° at 12 knots 10,000+ meters
Clouds
  • Few at 3,000' AGL